My webcam  My webcam


Besök vår andra vädersida:

Template documentation
and downloads

And another site



Nearby METAR Reports

   
ESOE - Orebro (private), Sweden
Distance from station: SSV 25 km
Updated: 17-01-2021 06:20
Dimma, Mulet  
Dimma, Mulet  
   Vind: Lugnt
Vind: Lugnt
Moln: Mulet
Visibility: 2 km
Cloud details: Mulet 300 ft
ESOE 170520Z AUTO 00000KT 2000 BR VV003 M03/// Q1019
ESSP - Norrkoping/Kungs, Sweden
Distance from station: SO 114 km
Updated: 17-01-2021 06:50
Mulet  
Mulet  
   Vind: VSV 1 m/s
Vind: VSV 1 m/s
Temperature: -3°C
Daggpunkt: -4°C
Luftfuktighet: 93%
Barometer: 1019 hPa
Moln: Mulet
Visibility: Mer än 10 km
Cloud details: Mulet 3000 ft
ESSP 170550Z AUTO 25002KT 9999 OVC030/// M03/M04 Q1019
ESSB - Stockholm/Bromma, Sweden
Distance from station: O 156 km
Updated: 17-01-2021 06:50
Mulet  
Mulet  
   Vind: Lugnt
Vind: Lugnt
Temperature: -3°C
Daggpunkt: -3°C
Luftfuktighet: 100%
Barometer: 1019 hPa
Moln: Mulet
Visibility: Mer än 10 km
Cloud details: Mulet 1600 ft
ESSB 170550Z AUTO 00000KT 9999 OVC016/// M03/M03 Q1019
ESSV - Visby Airport, Sweden
Distance from station: SO 269 km
Updated: 17-01-2021 06:50
Mestadels molningt  
Mestadels molningt  
   Vind: varies 1 m/s
Vind: varies 1 m/s
Temperature: -8°C
Daggpunkt: -9°C
Luftfuktighet: 93%
Barometer: 1019 hPa
Moln: Mestadels molningt
Visibility: Mer än 10 km
Cloud details: Mestadels molningt 4300 ft
ESSV 170550Z AUTO VRB02KT 9999 BKN043/// M08/M09 Q1019
ESNZ - Ostersund/Froson, Sweden
Distance from station: SSV 1 km
Updated: 17-01-2021 06:50
Mulet  
Mulet  
   Vind: Lugnt
Vind: Lugnt
Temperature: -19°C
Daggpunkt: -21°C
Luftfuktighet: 84%
Barometer: 1011 hPa
Moln: Mulet
Visibility: 1 km
Cloud details: Glesa moln 100 ft,
Mulet 200 ft
ESNZ 170550Z AUTO 00000KT 0900 R12/P1500N R30/P1500N FEW001/// OVC002/// M19/M21 Q1011
ESPA - Kallax/Lulea (af, Sweden
Distance from station: SSO 7 km
Updated: 17-01-2021 06:50
Klart  
Klart  
   Vind: VNV 0.5 m/s
Vind: VNV 0.5 m/s
Temperature: -17°C
Daggpunkt: -19°C
Luftfuktighet: 85%
Barometer: 1014 hPa
Moln: Klart
Visibility: Mer än 10 km
Cloud details: Klart
ESPA 170550Z AUTO 30001KT 9999 NCD M17/M19 Q1014

Script developed by  Saratoga-weather.org Adapted for the template by  Weerstation Leuven